Aeroporto :
LOGIN :

Iscrizione | Disclaimer

   EN    FR    IT 

 










Sommario :    VFR   VFR Marginale   IFR   IFR Intensivo   IFR Molto Intensivo
Visibilità : 
Base nubi : 
>= 8 km
>= 3000ft
5 / 8 km
1000 / 3000 ft
1500m / 5 km
500 / 1000 ft
800 / 1500m
200 / 500 ft
< 800m
< 200 ft
Simboli :   Temporali  Nebbia  Neve Forte  Precipitazioni Forti  Vento > 20 kt
SIGMETs :   Varie  Temporali  Ghiacco  Turbolenza  Onda orograficha  Ceneri Vulcaniche






- Altitudine del aeroporto : 1521 ft
- Codice IATA : NCY


LFLP - Annecy

ULTIMO METAR :
  • 182230Z AUTO 05005KT CAVOK 18/14 Q1021

METARs OBSOLETI :
  • 182200Z AUTO 03004KT CAVOK 19/15 Q1021
  • 182130Z AUTO 05005KT CAVOK 19/16 Q1021
  • 182100Z AUTO 05004KT CAVOK 20/15 Q1021
  • 182030Z AUTO 06005KT CAVOK 20/15 Q1020
  • 182000Z AUTO 06007KT CAVOK 22/15 Q1021
  • 181930Z AUTO 05003KT CAVOK 23/17 Q1020
  • 181900Z AUTO VRB02KT CAVOK 27/15 Q1020
  • 181830Z AUTO 28003KT CAVOK 28/16 Q1020

TAF TAF LFLP
Valido dal 18 a 15 ore il 19 a 15 ore UTC


181400Z 1815/1915 VRB03KT CAVOK
TEMPO 1909/1915 FEW120TCU



MetMap, La meteo Aeronautica in un colpo d'occhio ! - Copyright ORBIFLY Dicembre 2007 - Disclaimer

ORBIFLY MET'MAP TEAM :

Programmazione e sviluppo : Alexandra Zaïnal
Concezione : Baudouin d'Aumeries
Supporto tecnico e logistico : Manuel Goepfert
Aiuto : Marc-Olivier Méhu
Aiuto per la traduzione : Arnaldo La Scala




FONTI E CREDITI :

   NOAA